Time;durP1;ratioP1;P1;durP2;ratioP2;P2;SDS_P1;SDS_P2;PMS_P1;PMS_P2;Temp;Humidity;BMP_temperature;BMP_pressure;BME280_temperature;BME280_humidity;BME280_pressure;Samples;Min_cycle;Max_cycle;Signal;HPM_P1;HPM_P2
2022/05/05 00:02:09;;;;;;;9.55;3.15;;;11.20;99.90;;;;;;5116470;27;20398;-87
2022/05/05 00:04:34;;;;;;;;;;;11.20;99.90;;;;;;5116342;27;20020;-89
2022/05/05 00:07:02;;;;;;;7.07;4.05;;;11.20;99.90;;;;;;5116079;27;20420;-87
2022/05/05 00:09:28;;;;;;;6.03;3.40;;;11.30;99.90;;;;;;5115745;27;20023;-85
2022/05/05 00:14:40;;;;;;;4.68;3.85;;;11.40;99.90;;;;;;5134316;27;20046;-87
2022/05/05 00:17:08;;;;;;;5.35;3.40;;;11.30;99.90;;;;;;5115485;27;20030;-87
2022/05/05 00:19:41;;;;;;;6.70;4.10;;;11.40;99.90;;;;;;5115145;27;20019;-88
2022/05/05 00:22:06;;;;;;;9.27;4.30;;;11.40;99.90;;;;;;5115379;27;20164;-87
2022/05/05 00:24:32;;;;;;;;;;;11.50;99.90;;;;;;5115783;27;20118;-89
2022/05/05 00:26:58;;;;;;;5.70;4.00;;;11.50;99.90;;;;;;5116028;27;19922;-89
2022/05/05 00:29:24;;;;;;;;;;;11.50;99.90;;;;;;5134257;27;20027;-90
2022/05/05 00:31:49;;;;;;;5.57;3.42;;;11.50;99.90;;;;;;5115957;27;19907;-89
2022/05/05 00:34:15;;;;;;;;;;;11.50;99.90;;;;;;5134614;27;20034;-88
2022/05/05 00:36:41;;;;;;;4.15;2.97;;;11.50;99.90;;;;;;5115731;27;19910;-89
2022/05/05 00:39:08;;;;;;;;;;;11.50;99.90;;;;;;5116223;27;20475;-89
2022/05/05 00:41:39;;;;;;;4.13;2.97;;;11.50;99.90;;;;;;5115344;27;19907;-90
2022/05/05 00:44:06;;;;;;;6.28;3.67;;;11.60;99.90;;;;;;5115747;27;20110;-89
2022/05/05 00:46:33;;;;;;;4.55;3.10;;;11.60;99.90;;;;;;5133710;27;20479;-89
2022/05/05 00:48:59;;;;;;;6.28;2.85;;;11.60;99.90;;;;;;5115290;27;20027;-90
2022/05/05 00:51:25;;;;;;;;;;;11.70;99.90;;;;;;5116059;27;20091;-89
2022/05/05 00:53:51;;;;;;;5.35;3.30;;;11.70;99.90;;;;;;5115682;27;19907;-89
2022/05/05 00:56:17;;;;;;;6.05;3.63;;;11.80;99.90;;;;;;5115608;27;20522;-89
2022/05/05 00:58:44;;;;;;;8.00;3.65;;;11.80;99.90;;;;;;5104880;28;20058;-86
2022/05/05 01:01:14;;;;;;;5.57;4.10;;;11.80;99.90;;;;;;5072319;28;20048;-86
2022/05/05 01:03:39;;;;;;;6.15;4.30;;;11.80;99.90;;;;;;5070431;28;20041;-87
2022/05/05 01:06:06;;;;;;;;;;;11.80;99.90;;;;;;5070420;28;20401;-87
2022/05/05 01:08:35;;;;;;;7.97;4.80;;;11.80;99.90;;;;;;5070313;28;19909;-86
2022/05/05 01:11:02;;;;;;;8.23;4.25;;;11.80;99.90;;;;;;5070237;28;20021;-88
2022/05/05 01:13:28;;;;;;;6.88;4.63;;;11.70;99.90;;;;;;5070628;28;20035;-87
2022/05/05 01:15:55;;;;;;;6.22;4.97;;;11.70;99.90;;;;;;5070969;28;20049;-86
2022/05/05 01:18:21;;;;;;;6.07;3.95;;;11.60;99.90;;;;;;5070425;28;20095;-87
2022/05/05 01:20:49;;;;;;;5.78;4.28;;;11.60;99.90;;;;;;5071654;28;20032;-86
2022/05/05 01:23:15;;;;;;;8.50;5.00;;;11.60;99.90;;;;;;5070121;28;20025;-87
2022/05/05 01:28:27;;;;;;;7.15;5.45;;;11.60;99.90;;;;;;5072152;28;20032;-89
2022/05/05 01:30:53;;;;;;;5.90;4.15;;;11.60;99.90;;;;;;5071067;28;20062;-89
2022/05/05 01:33:19;;;;;;;;;;;11.60;99.90;;;;;;5071084;28;20029;-88
2022/05/05 01:35:47;;;;;;;8.97;4.83;;;11.70;99.90;;;;;;5070748;28;19901;-89
2022/05/05 01:38:15;;;;;;;9.02;4.70;;;11.70;99.90;;;;;;5070853;28;20032;-88
2022/05/05 01:40:43;;;;;;;5.60;3.60;;;11.70;99.90;;;;;;5070551;28;20507;-86
2022/05/05 01:43:10;;;;;;;9.73;3.38;;;11.70;99.90;;;;;;5071106;28;20021;-85
2022/05/05 01:45:36;;;;;;;10.57;3.60;;;11.80;99.90;;;;;;5069639;28;20025;-85
2022/05/05 01:48:02;;;;;;;3.85;3.10;;;11.80;99.90;;;;;;5068940;28;20036;-86
2022/05/05 01:50:31;;;;;;;5.68;3.40;;;11.90;99.90;;;;;;5069270;28;20505;-84
2022/05/05 01:52:58;;;;;;;5.60;3.00;;;11.90;99.90;;;;;;5069757;28;20107;-83
2022/05/05 01:55:24;;;;;;;7.10;3.75;;;12.00;99.90;;;;;;5068647;28;20032;-84
2022/05/05 01:57:49;;;;;;;;;;;12.00;99.90;;;;;;5068940;28;20439;-84
2022/05/05 02:00:16;;;;;;;7.20;3.38;;;12.10;99.90;;;;;;5091050;28;20445;-84
2022/05/05 02:02:45;;;;;;;5.20;3.72;;;12.10;99.90;;;;;;5110211;28;20023;-84
2022/05/05 02:05:12;;;;;;;8.40;4.15;;;12.20;99.90;;;;;;5092163;28;20023;-82
2022/05/05 02:07:38;;;;;;;6.45;3.42;;;12.30;99.90;;;;;;5092696;28;20118;-85
2022/05/05 02:10:05;;;;;;;5.65;3.15;;;12.30;99.90;;;;;;5092695;28;20028;-84
2022/05/05 02:12:32;;;;;;;6.03;3.60;;;12.40;99.90;;;;;;5092635;28;20080;-84
2022/05/05 02:14:58;;;;;;;3.45;2.50;;;12.40;99.90;;;;;;5092936;28;20039;-84
2022/05/05 02:17:24;;;;;;;;;;;12.50;99.90;;;;;;5098242;28;20020;-85
2022/05/05 02:19:50;;;;;;;5.18;2.78;;;12.60;99.90;;;;;;5096560;28;20009;-84
2022/05/05 02:22:16;;;;;;;;;;;12.60;99.90;;;;;;5097192;28;20023;-84
2022/05/05 02:24:42;;;;;;;9.25;4.35;;;12.70;99.90;;;;;;5096617;28;19908;-85
2022/05/05 02:27:10;;;;;;;9.75;4.35;;;12.60;99.90;;;;;;5094320;28;20058;-84
2022/05/05 02:29:36;;;;;;;7.85;3.90;;;12.60;99.90;;;;;;5093538;28;20131;-84
2022/05/05 02:32:02;;;;;;;;;;;12.60;99.90;;;;;;5096680;28;20114;-85
2022/05/05 02:34:27;;;;;;;7.07;4.10;;;12.60;99.90;;;;;;5114259;28;19908;-85
2022/05/05 02:39:37;;;;;;;4.50;2.65;;;12.60;99.90;;;;;;5114599;28;19910;-84
2022/05/05 02:42:03;;;;;;;;;;;12.60;99.90;;;;;;5096166;28;20114;-83
2022/05/05 02:44:28;;;;;;;4.40;3.03;;;12.60;99.90;;;;;;5095868;28;19903;-83
2022/05/05 02:46:54;;;;;;;;;;;12.60;99.90;;;;;;5096412;28;20511;-85
2022/05/05 02:49:20;;;;;;;3.08;2.38;;;12.60;99.90;;;;;;5096244;28;19947;-85
2022/05/05 02:51:45;;;;;;;;;;;12.50;99.90;;;;;;5098396;27;20115;-86
2022/05/05 02:56:55;;;;;;;3.85;2.90;;;12.50;99.90;;;;;;5136501;27;20084;-85
2022/05/05 02:59:21;;;;;;;;;;;12.50;99.90;;;;;;5119045;27;20264;-83
2022/05/05 03:01:47;;;;;;;4.18;3.10;;;12.50;99.90;;;;;;5120206;27;19911;-85
2022/05/05 03:04:12;;;;;;;;;;;12.50;99.90;;;;;;5117288;27;20023;-85
2022/05/05 03:06:38;;;;;;;4.05;2.58;;;12.50;99.90;;;;;;5116785;27;20010;-87
2022/05/05 03:09:04;;;;;;;;;;;12.50;99.90;;;;;;5118161;27;20020;-87
2022/05/05 03:11:29;;;;;;;5.32;3.40;;;12.50;99.90;;;;;;5135617;27;20291;-87
2022/05/05 03:13:55;;;;;;;;;;;12.50;99.90;;;;;;5117798;27;20042;-87
2022/05/05 03:16:20;;;;;;;6.15;3.10;;;12.50;99.90;;;;;;5116817;27;19907;-87
2022/05/05 03:18:46;;;;;;;;;;;12.50;99.90;;;;;;5117462;27;20023;-86
2022/05/05 03:21:11;;;;;;;4.38;3.25;;;12.50;99.90;;;;;;5116389;27;19952;-87
2022/05/05 03:23:37;;;;;;;;;;;12.40;99.90;;;;;;5117132;27;20400;-86
2022/05/05 03:26:03;;;;;;;3.83;2.95;;;12.40;99.90;;;;;;5116697;27;19908;-85
2022/05/05 03:28:28;;;;;;;;;;;12.40;99.90;;;;;;5114908;27;20035;-86
2022/05/05 03:30:54;;;;;;;4.95;3.33;;;12.40;99.90;;;;;;5116130;27;20363;-87
2022/05/05 03:33:19;;;;;;;;;;;12.40;99.90;;;;;;5116764;27;20038;-85
2022/05/05 03:35:45;;;;;;;5.68;3.13;;;12.40;99.90;;;;;;5116709;27;19949;-88
2022/05/05 03:38:11;;;;;;;;;;;12.40;99.90;;;;;;5116880;27;20072;-89
2022/05/05 03:40:36;;;;;;;7.07;4.10;;;12.40;99.90;;;;;;5135563;27;19903;-88
2022/05/05 03:43:02;;;;;;;;;;;12.30;99.90;;;;;;5116015;27;20027;-83
2022/05/05 03:45:27;;;;;;;4.95;3.95;;;12.30;99.90;;;;;;5115038;27;19911;-86
2022/05/05 03:47:53;;;;;;;;;;;12.20;99.90;;;;;;5116831;27;20483;-87
2022/05/05 03:50:18;;;;;;;6.50;4.32;;;12.30;99.90;;;;;;5116072;27;19903;-88
2022/05/05 03:52:44;;;;;;;;;;;12.20;99.90;;;;;;5115481;27;20031;-83
2022/05/05 03:55:10;;;;;;;7.40;4.20;;;12.30;99.90;;;;;;5113532;27;19907;-81
2022/05/05 03:57:35;;;;;;;;;;;12.30;99.90;;;;;;5115864;27;20019;-86
2022/05/05 04:00:03;;;;;;;4.97;3.97;;;12.30;99.90;;;;;;5116308;27;20275;-83
2022/05/05 04:02:30;;;;;;;5.63;4.47;;;12.30;99.90;;;;;;5114318;27;20047;-82
2022/05/05 04:04:55;;;;;;;9.48;5.53;;;12.40;99.90;;;;;;5114501;27;20019;-83
2022/05/05 04:07:21;;;;;;;;;;;12.40;99.90;;;;;;5132269;27;20484;-84
2022/05/05 04:09:47;;;;;;;6.10;4.93;;;12.40;99.90;;;;;;5114372;27;19907;-84
2022/05/05 04:12:12;;;;;;;;;;;12.40;99.90;;;;;;5095374;28;20461;-84
2022/05/05 04:14:38;;;;;;;6.80;4.60;;;12.40;99.90;;;;;;5113501;28;19914;-86
2022/05/05 04:17:04;;;;;;;;;;;12.40;99.90;;;;;;5095291;28;20504;-86
2022/05/05 04:19:29;;;;;;;10.43;6.43;;;12.50;99.90;;;;;;5095243;28;20326;-86
2022/05/05 04:21:55;;;;;;;;;;;12.50;99.90;;;;;;5096228;28;20026;-86
2022/05/05 04:24:20;;;;;;;12.00;6.47;;;12.50;99.90;;;;;;5095230;28;20384;-86
2022/05/05 04:26:46;;;;;;;;;;;12.50;99.90;;;;;;5096829;28;20071;-85
2022/05/05 04:29:12;;;;;;;8.98;5.22;;;12.50;99.90;;;;;;5096256;28;19927;-83
2022/05/05 04:31:39;;;;;;;7.85;5.28;;;12.50;99.90;;;;;;5095818;28;20020;-85
2022/05/05 04:34:05;;;;;;;7.63;5.20;;;12.40;99.90;;;;;;5096102;28;20057;-85
2022/05/05 04:36:34;;;;;;;;;;;12.50;99.90;;;;;;5096229;28;20036;-86
2022/05/05 04:39:01;;;;;;;7.60;5.00;;;12.50;99.90;;;;;;5094730;28;19911;-84
2022/05/05 04:41:27;;;;;;;8.35;4.55;;;12.50;99.90;;;;;;5095046;28;20024;-85
2022/05/05 04:43:52;;;;;;;;;;;12.50;99.90;;;;;;5095338;28;20102;-86
2022/05/05 04:46:18;;;;;;;6.20;3.97;;;12.60;99.90;;;;;;5113154;28;19915;-83
2022/05/05 04:48:43;;;;;;;;;;;12.60;99.90;;;;;;5094222;28;20106;-85
2022/05/05 04:51:09;;;;;;;7.00;4.53;;;12.50;99.90;;;;;;5123926;27;20332;-85
2022/05/05 04:53:35;;;;;;;;;;;12.50;99.90;;;;;;5133065;27;20594;-84
2022/05/05 04:56:00;;;;;;;11.98;5.43;;;12.50;99.90;;;;;;5114424;27;20283;-85
2022/05/05 04:58:26;;;;;;;;;;;12.60;99.90;;;;;;5115291;27;20023;-85
2022/05/05 05:00:53;;;;;;;5.20;3.88;;;12.60;99.90;;;;;;5096825;28;20408;-84
2022/05/05 05:03:35;;;;;;;6.43;4.57;;;12.70;99.90;;;;;;5090531;28;20557;-85
2022/05/05 05:06:02;;;;;;;7.82;5.03;;;12.70;99.90;;;;;;5090561;28;20031;-85
2022/05/05 05:08:28;;;;;;;7.05;4.93;;;12.70;99.90;;;;;;5090621;28;20035;-85
2022/05/05 05:10:53;;;;;;;;;;;12.70;99.90;;;;;;5091081;28;20023;-85
2022/05/05 05:13:19;;;;;;;10.77;5.03;;;12.70;99.90;;;;;;5088350;28;19954;-86
2022/05/05 05:15:44;;;;;;;;;;;12.70;99.90;;;;;;5088107;28;20137;-86
2022/05/05 05:18:10;;;;;;;7.75;4.28;;;12.70;99.90;;;;;;5101399;28;19904;-86
2022/05/05 05:20:35;;;;;;;;;;;12.70;99.90;;;;;;5092114;28;20024;-86
2022/05/05 05:23:01;;;;;;;7.10;4.00;;;12.70;99.90;;;;;;5090103;28;19904;-85
2022/05/05 05:25:26;;;;;;;;;;;12.80;99.90;;;;;;5089871;28;20035;-84
2022/05/05 05:27:52;;;;;;;6.95;4.10;;;12.80;99.90;;;;;;5090029;28;19908;-86
2022/05/05 05:30:18;;;;;;;;;;;12.80;99.90;;;;;;5090232;28;20119;-85
2022/05/05 05:32:43;;;;;;;5.15;3.70;;;12.90;99.90;;;;;;5090670;28;20117;-85
2022/05/05 05:35:09;;;;;;;;;;;13.00;99.90;;;;;;5089822;28;20103;-84
2022/05/05 05:37:34;;;;;;;5.32;3.72;;;13.00;99.90;;;;;;5089699;28;19904;-85
2022/05/05 05:40:00;;;;;;;;;;;12.90;99.90;;;;;;5090740;28;20559;-85
2022/05/05 05:42:26;;;;;;;8.68;3.47;;;13.00;99.90;;;;;;5090330;28;19904;-86
2022/05/05 05:44:51;;;;;;;;;;;13.00;99.90;;;;;;5090221;28;20027;-85
2022/05/05 05:47:17;;;;;;;6.05;3.35;;;13.10;99.90;;;;;;5089682;28;20318;-85
2022/05/05 05:49:42;;;;;;;;;;;13.00;99.90;;;;;;5090588;28;20030;-85
2022/05/05 05:52:08;;;;;;;6.18;4.18;;;13.10;99.90;;;;;;5089210;28;20403;-85
2022/05/05 05:54:33;;;;;;;;;;;13.20;99.90;;;;;;5091115;28;20024;-87
2022/05/05 05:56:59;;;;;;;8.93;5.70;;;13.20;99.90;;;;;;5090461;28;19950;-87
2022/05/05 05:59:25;;;;;;;7.28;5.05;;;13.40;99.90;;;;;;5092914;28;20111;-87
2022/05/05 06:04:34;;;;;;;8.00;4.32;;;13.60;99.90;;;;;;5132412;27;19952;-87
2022/05/05 06:07:00;;;;;;;;;;;13.80;99.90;;;;;;5114036;28;20038;-88
2022/05/05 06:09:26;;;;;;;8.75;5.03;;;13.90;99.90;;;;;;5132118;28;19926;-88
2022/05/05 06:11:52;;;;;;;;;;;14.10;99.90;;;;;;5113907;28;20034;-88
2022/05/05 06:14:18;;;;;;;9.40;7.35;;;14.30;99.90;;;;;;5113759;28;19904;-87
2022/05/05 06:16:44;;;;;;;8.68;4.57;;;14.50;99.90;;;;;;5113719;28;20027;-87
2022/05/05 06:19:09;;;;;;;;;;;14.70;99.90;;;;;;5114064;28;20416;-86
2022/05/05 06:21:35;;;;;;;5.13;4.30;;;14.80;99.90;;;;;;5115540;28;19910;-85
2022/05/05 06:24:00;;;;;;;5.18;3.83;;;15.10;99.90;;;;;;5116119;28;20033;-87
2022/05/05 06:26:27;;;;;;;8.88;3.15;;;15.40;99.90;;;;;;5112700;28;20177;-84
2022/05/05 06:28:56;;;;;;;6.22;2.92;;;15.70;99.90;;;;;;5112102;28;20037;-85
2022/05/05 06:31:23;;;;;;;7.22;2.78;;;16.20;99.90;;;;;;5111563;28;20027;-84
2022/05/05 06:33:49;;;;;;;5.78;3.08;;;16.50;99.90;;;;;;5112170;28;20041;-84
2022/05/05 06:36:16;;;;;;;3.55;2.53;;;16.90;99.90;;;;;;5111903;28;20510;-85
2022/05/05 06:38:42;;;;;;;7.47;2.90;;;17.20;99.90;;;;;;5111559;28;20042;-83
2022/05/05 06:41:08;;;;;;;4.03;2.72;;;17.70;99.90;;;;;;5111487;28;20023;-83
2022/05/05 06:43:34;;;;;;;4.38;2.30;;;18.40;99.90;;;;;;5110115;28;20023;-83
2022/05/05 06:46:00;;;;;;;4.70;2.30;;;19.10;99.90;;;;;;5111240;28;20026;-84
2022/05/05 06:48:26;;;;;;;6.45;2.60;;;19.70;99.90;;;;;;5114634;28;20028;-86
2022/05/05 06:50:52;;;;;;;4.43;2.97;;;19.70;99.90;;;;;;5130051;28;20054;-82
2022/05/05 06:53:17;;;;;;;4.53;3.03;;;19.80;99.90;;;;;;5106719;28;20058;-84
2022/05/05 06:55:43;;;;;;;2.85;1.90;;;19.80;99.90;;;;;;5090229;28;20679;-83
2022/05/05 06:58:09;;;;;;;4.00;2.72;;;19.80;99.90;;;;;;5090750;28;20485;-86
2022/05/05 07:03:19;;;;;;;4.20;3.20;;;20.10;99.90;;;;;;5111376;28;20561;-88
2022/05/05 07:05:45;;;;;;;6.50;3.95;;;20.10;99.90;;;;;;5096382;28;20024;-89
2022/05/05 07:08:11;;;;;;;6.70;3.92;;;20.30;99.90;;;;;;5097219;28;20032;-89
2022/05/05 07:10:55;;;;;;;6.97;3.50;;;20.60;99.90;;;;;;5120197;27;20038;-88
2022/05/05 07:13:25;;;;;;;8.77;4.05;;;21.20;99.90;;;;;;5137259;27;20027;-92
2022/05/05 07:15:51;;;;;;;5.43;4.00;;;21.70;99.90;;;;;;5117239;27;20058;-90
2022/05/05 07:18:17;;;;;;;5.18;3.80;;;22.00;99.90;;;;;;5116702;27;20027;-89
2022/05/05 07:20:43;;;;;;;4.97;3.63;;;21.80;98.80;;;;;;5117247;27;20030;-90
2022/05/05 07:23:12;;;;;;;6.35;4.43;;;21.60;99.90;;;;;;5116402;27;20482;-89
2022/05/05 07:25:39;;;;;;;5.93;3.50;;;21.40;99.90;;;;;;5116681;27;20019;-87
2022/05/05 07:28:05;;;;;;;9.75;4.53;;;21.10;99.90;;;;;;5116098;27;20031;-86
2022/05/05 07:30:31;;;;;;;9.27;4.78;;;20.70;99.90;;;;;;5134413;27;20031;-90
2022/05/05 07:32:57;;;;;;;8.80;3.92;;;20.30;99.90;;;;;;5116161;27;20403;-87
2022/05/05 07:35:22;;;;;;;4.70;3.75;;;19.80;99.90;;;;;;5117394;27;20060;-89
2022/05/05 07:37:48;;;;;;;8.25;4.38;;;19.40;99.90;;;;;;5117821;27;20035;-89
2022/05/05 07:40:14;;;;;;;5.13;3.83;;;19.10;99.90;;;;;;5117084;27;20038;-89
2022/05/05 07:42:41;;;;;;;6.72;5.40;;;18.90;99.90;;;;;;5096660;28;20024;-88
2022/05/05 07:45:07;;;;;;;8.02;5.20;;;18.80;99.90;;;;;;5099298;27;20096;-81
2022/05/05 07:47:33;;;;;;;9.43;4.30;;;18.60;99.90;;;;;;5094456;28;20044;-80
2022/05/05 07:50:00;;;;;;;8.82;5.93;;;18.60;99.90;;;;;;5098342;28;20031;-81
2022/05/05 07:52:26;;;;;;;9.23;6.13;;;18.60;99.90;;;;;;5101581;28;20093;-81
2022/05/05 07:54:52;;;;;;;7.97;4.82;;;18.50;99.90;;;;;;5099780;28;20044;-81
2022/05/05 07:57:20;;;;;;;6.57;4.43;;;18.40;99.90;;;;;;5103921;28;20035;-80
2022/05/05 07:59:46;;;;;;;4.88;3.70;;;18.40;99.90;;;;;;5094359;28;20039;-81
2022/05/05 08:02:15;;;;;;;6.55;4.28;;;18.50;99.90;;;;;;5097494;27;20044;-81
2022/05/05 08:04:45;;;;;;;7.60;3.95;;;18.60;99.90;;;;;;5096295;27;20024;-81
2022/05/05 08:07:11;;;;;;;7.95;2.40;;;18.70;99.90;;;;;;5107651;28;20531;-81
2022/05/05 08:09:38;;;;;;;6.22;2.67;;;18.80;99.90;;;;;;5101890;28;20046;-80
2022/05/05 08:12:04;;;;;;;3.70;2.33;;;18.80;99.90;;;;;;5106247;28;20035;-80
2022/05/05 08:14:31;;;;;;;4.60;2.38;;;18.70;99.90;;;;;;5095047;28;20508;-81
2022/05/05 08:16:57;;;;;;;6.68;3.28;;;18.70;99.90;;;;;;5101518;28;20082;-82
2022/05/05 08:19:23;;;;;;;6.82;3.55;;;18.70;99.90;;;;;;5098293;28;20082;-81
2022/05/05 08:21:49;;;;;;;7.72;3.83;;;18.60;99.90;;;;;;5093374;28;20373;-80
2022/05/05 08:29:44;;;;;;;18.23;5.50;;;18.10;99.90;;;;;;5105301;28;20054;-81
2022/05/05 08:32:10;;;;;;;10.38;4.72;;;18.00;99.90;;;;;;5099800;28;20314;-80
2022/05/05 08:34:36;;;;;;;10.18;4.35;;;17.90;99.90;;;;;;5102509;28;20036;-81
2022/05/05 08:37:02;;;;;;;6.18;4.75;;;17.80;99.90;;;;;;5097258;28;20036;-81
2022/05/05 08:39:27;;;;;;;12.23;5.25;;;17.80;99.90;;;;;;5105742;28;20160;-80
2022/05/05 08:41:55;;;;;;;10.13;5.60;;;17.80;99.90;;;;;;5094883;28;20118;-79
2022/05/05 08:44:20;;;;;;;14.82;4.53;;;17.70;99.90;;;;;;5096022;28;20039;-81
2022/05/05 08:46:48;;;;;;;13.63;3.67;;;17.70;99.90;;;;;;5096513;28;20036;-83
2022/05/05 08:49:17;;;;;;;8.93;3.92;;;17.50;99.90;;;;;;5102890;27;20035;-83
2022/05/05 08:51:45;;;;;;;7.53;3.30;;;17.30;99.90;;;;;;5097377;28;20426;-83
2022/05/05 08:54:19;;;;;;;8.52;4.20;;;17.20;99.90;;;;;;5095874;28;20122;-83
2022/05/05 08:56:48;;;;;;;12.48;4.55;;;17.20;99.90;;;;;;5100963;28;20636;-84
2022/05/05 08:59:17;;;;;;;9.35;4.28;;;17.30;99.90;;;;;;5101448;28;20039;-82
2022/05/05 09:01:43;;;;;;;9.77;4.00;;;17.40;99.90;;;;;;5097349;28;20062;-84
2022/05/05 09:04:09;;;;;;;7.60;4.00;;;17.60;99.90;;;;;;5106282;28;20047;-84
2022/05/05 09:06:51;;;;;;;6.38;3.25;;;17.80;99.90;;;;;;5099350;28;20392;-83
2022/05/05 09:09:35;;;;;;;5.85;3.50;;;18.00;99.90;;;;;;5101740;28;20065;-81
2022/05/05 09:12:14;;;;;;;9.25;3.67;;;18.30;99.90;;;;;;5095743;28;20500;-83
2022/05/05 09:14:53;;;;;;;6.13;3.63;;;18.50;99.90;;;;;;5094717;28;20132;-82
2022/05/05 09:17:21;;;;;;;7.43;3.67;;;18.60;99.90;;;;;;5104997;28;20123;-83
2022/05/05 09:19:51;;;;;;;5.00;3.03;;;18.60;99.90;;;;;;5093620;28;20040;-80
2022/05/05 09:22:22;;;;;;;10.68;3.47;;;19.00;99.90;;;;;;5091654;28;20063;-80
2022/05/05 09:24:49;;;;;;;9.13;2.85;;;19.70;99.90;;;;;;5099334;28;20035;-80
2022/05/05 09:27:32;;;;;;;11.45;3.20;;;20.50;99.90;;;;;;5097335;28;20035;-80
2022/05/05 09:29:59;;;;;;;9.57;3.00;;;21.20;99.90;;;;;;5104998;28;20039;-82
2022/05/05 09:32:35;;;;;;;12.57;3.35;;;22.10;99.90;;;;;;5098461;28;20032;-81
2022/05/05 09:35:13;;;;;;;10.40;2.47;;;22.80;98.10;;;;;;5094314;28;20031;-83
2022/05/05 09:37:46;;;;;;;6.68;2.53;;;23.10;80.20;;;;;;5099935;28;20087;-82
2022/05/05 09:40:17;;;;;;;7.00;2.60;;;23.30;72.50;;;;;;5105389;28;20515;-82
2022/05/05 09:42:45;;;;;;;4.80;2.65;;;23.60;68.90;;;;;;5105415;28;20032;-83
2022/05/05 09:45:16;;;;;;;7.65;2.60;;;23.90;65.60;;;;;;5105222;27;20077;-82
2022/05/05 09:47:49;;;;;;;4.72;2.40;;;24.30;60.20;;;;;;5097715;28;20042;-82
2022/05/05 09:50:15;;;;;;;4.85;2.35;;;24.20;56.90;;;;;;5101305;28;20500;-83
2022/05/05 09:58:15;;;;;;;6.22;2.53;;;24.50;57.20;;;;;;5107256;28;20096;-82
2022/05/05 10:00:45;;;;;;;6.72;2.53;;;24.00;54.90;;;;;;5107929;28;20582;-83
2022/05/05 10:04:20;;;;;;;5.00;2.72;;;23.60;58.40;;;;;;5089872;28;20028;-82
2022/05/05 10:06:21;;;;;;;3.83;2.33;;;23.30;62.00;;;;;;5093519;28;20031;-83
2022/05/05 10:08:51;;;;;;;9.52;2.28;;;22.70;65.20;;;;;;5089183;28;20612;-84
2022/05/05 10:11:18;;;;;;;3.22;2.20;;;22.60;66.50;;;;;;5108007;28;20028;-83
2022/05/05 10:13:45;;;;;;;6.15;1.65;;;22.60;73.20;;;;;;5089585;28;20055;-83
2022/05/05 10:16:14;;;;;;;5.43;2.38;;;22.60;63.50;;;;;;5089868;28;20537;-83
2022/05/05 10:18:41;;;;;;;6.38;2.60;;;22.60;62.00;;;;;;5106608;28;20036;-83
2022/05/05 10:21:16;;;;;;;5.25;1.75;;;22.30;61.60;;;;;;5089854;28;20449;-84
2022/05/05 10:24:06;;;;;;;5.85;2.42;;;22.30;66.80;;;;;;5090087;28;20035;-84
2022/05/05 10:26:33;;;;;;;2.75;1.63;;;22.40;60.20;;;;;;5107997;28;20037;-84
2022/05/05 10:28:58;;;;;;;3.85;2.00;;;22.30;63.10;;;;;;5108300;28;20453;-83
2022/05/05 10:31:30;;;;;;;2.83;1.77;;;22.50;59.50;;;;;;5107650;28;20098;-82
2022/05/05 10:34:01;;;;;;;9.10;1.55;;;22.70;59.00;;;;;;5089847;28;20032;-84
2022/05/05 10:36:30;;;;;;;6.15;1.70;;;22.80;60.00;;;;;;5089584;28;20040;-84
2022/05/05 10:38:57;;;;;;;6.20;2.45;;;22.80;60.60;;;;;;5092390;28;20031;-83
2022/05/05 10:41:35;;;;;;;4.60;1.50;;;22.70;58.20;;;;;;5093314;28;20460;-82
2022/05/05 10:44:16;;;;;;;5.97;1.98;;;22.60;56.50;;;;;;5093096;28;20062;-83
2022/05/05 10:46:51;;;;;;;3.33;2.25;;;22.50;64.30;;;;;;5091978;28;20043;-83
2022/05/05 10:49:32;;;;;;;3.42;1.75;;;22.50;66.50;;;;;;5093617;28;20027;-82
2022/05/05 10:52:16;;;;;;;9.55;1.63;;;22.60;65.40;;;;;;5093521;28;20124;-83
2022/05/05 10:54:47;;;;;;;6.18;2.60;;;22.90;62.50;;;;;;5094052;28;20088;-84
2022/05/05 10:57:25;;;;;;;7.93;3.20;;;23.00;66.40;;;;;;5095239;28;20023;-84
2022/05/05 11:00:18;;;;;;;16.05;2.15;;;23.10;66.40;;;;;;5111191;28;20051;-84
2022/05/05 11:03:02;;;;;;;4.75;2.05;;;22.90;65.90;;;;;;5093299;28;20400;-84
2022/05/05 11:05:32;;;;;;;3.58;2.30;;;22.90;66.10;;;;;;5111377;28;20024;-82
2022/05/05 11:08:10;;;;;;;2.58;2.00;;;23.00;66.50;;;;;;5111552;28;20028;-83
2022/05/05 11:10:44;;;;;;;4.68;2.05;;;22.90;67.10;;;;;;5093398;28;20038;-83
2022/05/05 11:13:41;;;;;;;4.15;1.88;;;22.90;70.20;;;;;;5092923;28;20040;-82
2022/05/05 11:22:15;;;;;;;7.55;3.05;;;22.60;74.80;;;;;;5110883;28;20039;-83
2022/05/05 11:24:46;;;;;;;3.88;3.17;;;22.60;76.90;;;;;;5111661;28;20483;-82
2022/05/05 11:27:13;;;;;;;3.78;2.83;;;22.40;72.50;;;;;;5092547;28;20039;-83
2022/05/05 11:29:39;;;;;;;6.72;2.63;;;22.40;76.80;;;;;;5093172;28;20402;-84
2022/05/05 11:32:05;;;;;;;4.57;2.90;;;22.20;73.80;;;;;;5092487;28;20027;-82
2022/05/05 11:34:36;;;;;;;11.57;2.50;;;22.20;76.80;;;;;;5110462;28;20035;-81
2022/05/05 11:37:04;;;;;;;3.60;2.17;;;22.10;75.60;;;;;;5110571;28;20053;-82
2022/05/05 11:39:32;;;;;;;9.57;2.80;;;22.10;78.70;;;;;;5094525;28;20053;-81
2022/05/05 11:42:01;;;;;;;5.03;2.25;;;22.10;75.00;;;;;;5093402;27;20095;-81
2022/05/05 11:44:27;;;;;;;8.82;2.60;;;22.10;75.60;;;;;;5095763;28;20027;-80
2022/05/05 11:47:07;;;;;;;3.45;2.38;;;22.10;77.70;;;;;;5103726;27;20507;-81
2022/05/05 11:49:33;;;;;;;4.80;2.97;;;22.20;74.50;;;;;;5104713;28;20483;-81
2022/05/05 11:51:59;;;;;;;9.40;3.50;;;22.00;72.80;;;;;;5103650;28;20069;-80
2022/05/05 11:54:33;;;;;;;5.90;2.50;;;21.80;69.70;;;;;;5105193;28;20049;-81
2022/05/05 11:57:00;;;;;;;6.10;2.13;;;21.80;72.70;;;;;;5085658;28;20043;-81
2022/05/05 12:02:16;;;;;;;3.50;2.38;;;21.80;74.00;;;;;;5104974;28;20092;-81
2022/05/05 12:04:49;;;;;;;4.38;1.92;;;21.70;74.50;;;;;;5107757;28;20040;-80
2022/05/05 12:07:23;;;;;;;3.88;2.10;;;21.60;76.60;;;;;;5097234;28;20043;-80
2022/05/05 12:09:59;;;;;;;3.78;1.50;;;21.70;73.20;;;;;;5096058;28;20038;-81
2022/05/05 12:12:27;;;;;;;4.90;2.33;;;21.80;75.50;;;;;;5095415;28;20035;-81
2022/05/05 12:15:06;;;;;;;6.45;1.77;;;21.90;78.10;;;;;;5111462;27;20050;-81
2022/05/05 12:17:39;;;;;;;2.95;1.23;;;22.00;63.50;;;;;;5092515;28;20028;-80
2022/05/05 12:20:07;;;;;;;2.47;1.20;;;21.90;61.10;;;;;;5089418;28;20035;-80
2022/05/05 12:22:37;;;;;;;2.65;1.23;;;22.00;66.20;;;;;;5097578;28;20039;-80
2022/05/05 12:25:13;;;;;;;3.55;1.38;;;22.10;66.60;;;;;;5090304;28;20035;-80
2022/05/05 12:27:39;;;;;;;2.35;1.50;;;22.10;61.30;;;;;;5106894;28;20055;-81
2022/05/05 12:30:06;;;;;;;5.40;1.50;;;22.00;60.50;;;;;;5095173;28;20047;-80
2022/05/05 12:32:32;;;;;;;6.28;1.67;;;22.00;57.10;;;;;;5105794;28;20042;-80
2022/05/05 12:35:17;;;;;;;1.83;1.10;;;21.80;57.00;;;;;;5095638;28;20036;-80
2022/05/05 12:37:43;;;;;;;6.55;1.05;;;21.70;57.50;;;;;;5094629;28;20036;-81
2022/05/05 12:40:10;;;;;;;4.50;1.30;;;21.70;56.40;;;;;;5093140;28;20050;-80
2022/05/05 12:42:41;;;;;;;3.17;1.20;;;21.60;57.70;;;;;;5093067;28;20044;-81
2022/05/05 12:45:12;;;;;;;3.42;1.45;;;21.70;59.80;;;;;;5095660;28;20047;-81
2022/05/05 12:47:41;;;;;;;3.78;1.02;;;21.80;59.40;;;;;;5103685;28;20036;-81
2022/05/05 12:50:38;;;;;;;2.63;1.55;;;21.80;58.30;;;;;;5106656;28;20226;-80
2022/05/05 13:01:30;;;;;;;2.95;1.60;;;21.40;59.00;;;;;;5106169;28;20144;-81
2022/05/05 13:04:01;;;;;;;2.88;1.13;;;21.40;60.30;;;;;;5090115;28;20115;-80
2022/05/05 13:06:27;;;;;;;2.10;1.15;;;21.40;58.80;;;;;;5093822;28;20484;-80
2022/05/05 13:08:54;;;;;;;8.35;1.58;;;21.50;60.80;;;;;;5091620;28;20164;-80
2022/05/05 13:11:20;;;;;;;4.20;1.33;;;21.50;60.90;;;;;;5105939;28;20043;-79
2022/05/05 13:13:47;;;;;;;6.75;1.45;;;21.50;61.10;;;;;;5097220;28;20392;-80
2022/05/05 13:16:14;;;;;;;5.15;1.60;;;21.50;59.40;;;;;;5103011;28;20106;-79
2022/05/05 13:18:39;;;;;;;1.65;0.88;;;21.40;58.80;;;;;;5104663;28;20036;-80
2022/05/05 13:21:05;;;;;;;3.00;1.30;;;21.50;58.90;;;;;;5105313;28;20036;-81
2022/05/05 13:23:31;;;;;;;3.95;1.45;;;21.60;57.80;;;;;;5088795;28;20036;-80
2022/05/05 13:25:57;;;;;;;5.82;1.40;;;21.60;55.70;;;;;;5103122;28;20495;-80
2022/05/05 13:28:23;;;;;;;1.77;1.05;;;21.60;57.30;;;;;;5106352;28;20044;-79
2022/05/05 13:30:49;;;;;;;3.33;1.55;;;21.60;57.20;;;;;;5087814;28;20040;-80
2022/05/05 13:33:14;;;;;;;1.98;1.00;;;21.70;56.60;;;;;;5105122;28;20503;-80
2022/05/05 13:35:40;;;;;;;7.30;1.20;;;21.80;53.70;;;;;;5106370;28;20051;-79
2022/05/05 13:38:06;;;;;;;2.00;1.20;;;21.90;54.40;;;;;;5088035;28;20035;-80
2022/05/05 13:40:32;;;;;;;1.80;0.77;;;21.90;54.30;;;;;;5105697;28;20566;-80
2022/05/05 13:42:58;;;;;;;3.38;1.00;;;22.10;55.30;;;;;;5110625;27;20467;-80
2022/05/05 13:45:24;;;;;;;4.05;1.08;;;22.20;54.80;;;;;;5105968;28;20031;-80
2022/05/05 13:47:53;;;;;;;1.73;0.90;;;22.30;54.40;;;;;;5105788;28;20043;-80
2022/05/05 13:50:20;;;;;;;3.05;1.52;;;22.40;53.60;;;;;;5104832;28;20135;-78